Time;durP1;ratioP1;P1;durP2;ratioP2;P2;SDS_P1;SDS_P2;PMS_P1;PMS_P2;Temp;Humidity;BMP_temperature;BMP_pressure;BME280_temperature;BME280_humidity;BME280_pressure;Samples;Min_cycle;Max_cycle;Signal;HPM_P1;HPM_P2
2021/11/08 00:01:10;;;;;;;13.33;2.77;;;;;;;;;;4948936;28;20231;-72
2021/11/08 00:03:41;;;;;;;13.87;2.83;;;;;;;;;;4960582;28;20295;-73
2021/11/08 00:06:07;;;;;;;15.10;2.80;;;;;;;;;;4970766;28;20328;-75
2021/11/08 00:08:36;;;;;;;10.97;2.80;;;;;;;;;;4983889;28;20894;-75
2021/11/08 00:11:02;;;;;;;9.70;2.83;;;;;;;;;;4947468;28;20718;-74
2021/11/08 00:13:28;;;;;;;9.77;2.70;;;;;;;;;;4961064;28;20334;-75
2021/11/08 00:20:53;;;;;;;12.00;3.03;;;;;;;;;;4954856;28;20317;-73
2021/11/08 00:23:26;;;;;;;15.33;4.63;;;;;;;;;;4988156;28;20229;-74
2021/11/08 00:25:52;;;;;;;14.87;3.00;;;;;;;;;;4959226;28;20218;-75
2021/11/08 00:28:19;;;;;;;13.50;3.07;;;;;;;;;;4968498;28;20512;-74
2021/11/08 00:30:45;;;;;;;11.90;2.83;;;;;;;;;;4935691;28;20254;-74
2021/11/08 00:33:16;;;;;;;14.77;3.43;;;;;;;;;;4935145;28;20764;-74
2021/11/08 00:35:45;;;;;;;11.00;2.70;;;;;;;;;;4953981;28;20256;-74
2021/11/08 00:38:11;;;;;;;9.27;2.80;;;;;;;;;;4986082;28;20620;-74
2021/11/08 00:40:37;;;;;;;11.40;2.80;;;;;;;;;;4983623;28;20313;-74
2021/11/08 00:43:05;;;;;;;13.90;2.90;;;;;;;;;;4970104;28;20314;-73
2021/11/08 00:45:36;;;;;;;13.33;3.20;;;;;;;;;;4970372;28;20218;-74
2021/11/08 00:48:05;;;;;;;14.17;3.00;;;;;;;;;;4969723;28;20225;-74
2021/11/08 00:50:31;;;;;;;6.97;2.30;;;;;;;;;;4966964;28;20693;-74
2021/11/08 00:52:56;;;;;;;13.40;3.00;;;;;;;;;;4962890;28;20222;-75
2021/11/08 00:55:26;;;;;;;12.17;3.07;;;;;;;;;;4958865;28;20272;-73
2021/11/08 00:57:57;;;;;;;14.33;3.03;;;;;;;;;;4954813;28;20269;-74
2021/11/08 01:00:27;;;;;;;11.07;2.80;;;;;;;;;;4942140;28;20221;-74
2021/11/08 01:02:53;;;;;;;10.13;2.60;;;;;;;;;;4973509;28;20253;-74
2021/11/08 01:05:19;;;;;;;10.20;2.60;;;;;;;;;;4970158;28;20316;-75
2021/11/08 01:07:47;;;;;;;12.70;2.77;;;;;;;;;;4960373;28;20222;-73
2021/11/08 01:10:16;;;;;;;13.10;2.60;;;;;;;;;;4956018;28;20231;-74
2021/11/08 01:12:44;;;;;;;11.80;2.93;;;;;;;;;;4982959;28;20226;-74
2021/11/08 01:15:09;;;;;;;8.53;2.63;;;;;;;;;;4959639;28;20214;-74
2021/11/08 01:17:37;;;;;;;10.60;1.70;;;;;;;;;;4954103;28;20620;-74
2021/11/08 01:20:06;;;;;;;11.30;2.30;;;;;;;;;;4962763;28;20215;-74
2021/11/08 01:22:35;;;;;;;8.17;2.23;;;;;;;;;;4935372;29;20700;-74
2021/11/08 01:25:03;;;;;;;9.30;2.53;;;;;;;;;;4942891;28;20240;-74
2021/11/08 01:27:36;;;;;;;11.13;2.60;;;;;;;;;;4968841;28;20580;-73
2021/11/08 01:30:12;;;;;;;10.93;2.37;;;;;;;;;;4974320;28;20226;-73
2021/11/08 01:32:41;;;;;;;13.20;2.67;;;;;;;;;;4943604;28;20621;-74
2021/11/08 01:35:07;;;;;;;10.40;2.60;;;;;;;;;;4946968;28;20604;-74
2021/11/08 01:37:36;;;;;;;11.13;2.63;;;;;;;;;;4977284;28;20218;-75
2021/11/08 01:40:08;;;;;;;10.23;2.87;;;;;;;;;;4976362;28;20222;-74
2021/11/08 01:42:34;;;;;;;9.03;2.70;;;;;;;;;;4964793;28;20608;-73
2021/11/08 01:45:02;;;;;;;9.00;2.43;;;;;;;;;;4957545;28;20213;-74
2021/11/08 01:47:32;;;;;;;13.77;2.80;;;;;;;;;;4992497;28;20240;-74
2021/11/08 01:49:58;;;;;;;12.37;2.80;;;;;;;;;;4989336;28;20222;-73
2021/11/08 01:52:31;;;;;;;7.03;2.33;;;;;;;;;;4957404;28;20218;-72
2021/11/08 01:54:58;;;;;;;10.50;2.13;;;;;;;;;;4975096;28;20226;-74
2021/11/08 01:57:24;;;;;;;10.93;2.20;;;;;;;;;;4993803;28;20228;-73
2021/11/08 01:59:49;;;;;;;11.77;2.53;;;;;;;;;;4959614;28;20221;-73
2021/11/08 02:02:15;;;;;;;11.60;2.70;;;;;;;;;;4940384;28;20226;-73
2021/11/08 02:04:41;;;;;;;14.60;2.77;;;;;;;;;;4972931;28;20268;-73
2021/11/08 02:07:08;;;;;;;11.13;3.03;;;;;;;;;;4974711;28;20236;-74
2021/11/08 02:09:36;;;;;;;10.33;2.93;;;;;;;;;;4993720;28;20221;-73
2021/11/08 02:12:04;;;;;;;10.43;2.37;;;;;;;;;;4977149;28;20677;-74
2021/11/08 02:14:30;;;;;;;10.93;2.47;;;;;;;;;;4956914;28;20222;-74
2021/11/08 02:16:58;;;;;;;7.10;2.40;;;;;;;;;;4973235;28;20225;-74
2021/11/08 02:19:24;;;;;;;11.47;2.13;;;;;;;;;;4975260;28;20344;-73
2021/11/08 02:21:51;;;;;;;9.60;2.60;;;;;;;;;;4972968;28;20621;-73
2021/11/08 02:24:24;;;;;;;12.13;2.77;;;;;;;;;;4956215;28;20237;-73
2021/11/08 02:26:50;;;;;;;13.20;2.67;;;;;;;;;;4996462;28;20225;-73
2021/11/08 02:29:18;;;;;;;8.73;2.37;;;;;;;;;;4959329;28;20217;-74
2021/11/08 02:31:47;;;;;;;9.77;2.30;;;;;;;;;;4976208;28;20248;-73
2021/11/08 02:34:17;;;;;;;13.37;2.77;;;;;;;;;;4991173;28;20304;-73
2021/11/08 02:36:43;;;;;;;10.67;2.30;;;;;;;;;;4964109;28;20238;-73
2021/11/08 02:39:25;;;;;;;9.40;2.83;;;;;;;;;;4955327;28;20241;-75
2021/11/08 02:41:55;;;;;;;8.47;2.43;;;;;;;;;;4958073;28;20710;-74
2021/11/08 02:44:21;;;;;;;11.37;2.70;;;;;;;;;;4986752;28;20241;-73
2021/11/08 02:46:52;;;;;;;9.77;2.67;;;;;;;;;;4972454;28;20226;-73
2021/11/08 02:49:25;;;;;;;14.17;2.80;;;;;;;;;;4940797;28;20785;-73
2021/11/08 02:52:09;;;;;;;11.13;2.50;;;;;;;;;;4972893;28;20243;-74
2021/11/08 02:54:41;;;;;;;12.80;2.97;;;;;;;;;;4957836;28;20222;-74
2021/11/08 02:57:07;;;;;;;10.00;2.20;;;;;;;;;;4996234;28;20284;-74
2021/11/08 02:59:35;;;;;;;8.77;2.60;;;;;;;;;;4975051;28;20241;-74
2021/11/08 03:02:02;;;;;;;8.40;2.20;;;;;;;;;;4972007;28;20222;-74
2021/11/08 03:04:31;;;;;;;10.33;2.50;;;;;;;;;;4965945;28;20245;-74
2021/11/08 03:06:56;;;;;;;13.33;2.73;;;;;;;;;;4984588;28;20720;-74
2021/11/08 03:09:33;;;;;;;11.77;3.00;;;;;;;;;;4956205;28;20218;-74
2021/11/08 03:12:02;;;;;;;12.60;2.83;;;;;;;;;;4981014;28;20225;-74
2021/11/08 03:14:30;;;;;;;10.30;2.57;;;;;;;;;;4987562;28;20660;-74
2021/11/08 03:17:00;;;;;;;15.53;3.17;;;;;;;;;;4968681;28;20218;-75
2021/11/08 03:19:34;;;;;;;11.87;2.70;;;;;;;;;;4955787;28;20589;-74
2021/11/08 03:22:04;;;;;;;11.63;2.67;;;;;;;;;;4979094;28;20217;-74
2021/11/08 03:27:30;;;;;;;7.47;2.10;;;;;;;;;;4967631;28;20218;-73
2021/11/08 03:30:00;;;;;;;11.33;2.40;;;;;;;;;;4952446;28;20246;-74
2021/11/08 03:32:26;;;;;;;9.80;2.80;;;;;;;;;;4958174;28;20689;-75
2021/11/08 03:35:00;;;;;;;15.03;3.13;;;;;;;;;;4935478;28;20652;-74
2021/11/08 03:37:33;;;;;;;14.40;2.30;;;;;;;;;;4961108;28;20229;-74
2021/11/08 03:39:58;;;;;;;11.23;2.40;;;;;;;;;;4955900;28;20256;-74
2021/11/08 03:42:28;;;;;;;10.23;2.57;;;;;;;;;;4950725;28;20218;-74
2021/11/08 03:44:54;;;;;;;10.17;2.37;;;;;;;;;;4952266;28;20215;-74
2021/11/08 03:47:19;;;;;;;11.53;2.80;;;;;;;;;;4961294;28;20226;-74
2021/11/08 03:49:45;;;;;;;9.30;2.80;;;;;;;;;;4971972;28;20241;-73
2021/11/08 03:52:10;;;;;;;10.00;2.80;;;;;;;;;;4982299;28;20652;-73
2021/11/08 03:54:36;;;;;;;8.20;2.17;;;;;;;;;;4967077;28;20223;-73
2021/11/08 03:57:02;;;;;;;9.70;2.53;;;;;;;;;;4954695;28;20250;-74
2021/11/08 03:59:32;;;;;;;10.97;2.30;;;;;;;;;;4954445;28;20218;-74
2021/11/08 04:02:00;;;;;;;8.47;2.53;;;;;;;;;;4955455;28;20226;-74
2021/11/08 04:04:28;;;;;;;14.93;2.83;;;;;;;;;;4973348;28;20217;-74
2021/11/08 04:07:02;;;;;;;14.37;2.80;;;;;;;;;;4990328;28;20213;-74
2021/11/08 04:09:30;;;;;;;13.27;2.80;;;;;;;;;;4941631;28;20233;-74
2021/11/08 04:11:59;;;;;;;13.37;2.77;;;;;;;;;;4966976;28;20233;-74
2021/11/08 04:14:27;;;;;;;11.60;2.90;;;;;;;;;;4982247;28;20222;-74
2021/11/08 04:16:56;;;;;;;10.30;2.43;;;;;;;;;;4967554;28;20227;-75
2021/11/08 04:19:27;;;;;;;8.47;2.63;;;;;;;;;;4972880;28;20719;-73
2021/11/08 04:21:53;;;;;;;10.83;2.47;;;;;;;;;;4970436;28;20225;-75
2021/11/08 04:24:21;;;;;;;16.03;2.87;;;;;;;;;;4963533;28;20218;-79
2021/11/08 04:26:49;;;;;;;9.23;2.70;;;;;;;;;;4972029;28;20225;-73
2021/11/08 04:29:20;;;;;;;13.17;2.93;;;;;;;;;;4953581;28;20360;-74
2021/11/08 04:31:50;;;;;;;11.70;2.47;;;;;;;;;;4951647;28;20234;-73
2021/11/08 04:34:19;;;;;;;14.37;2.57;;;;;;;;;;4963270;28;20747;-73
2021/11/08 04:39:52;;;;;;;11.20;2.53;;;;;;;;;;4952961;28;20261;-73
2021/11/08 04:42:52;;;;;;;15.27;2.80;;;;;;;;;;4930950;28;20223;-74
2021/11/08 05:22:48;;;;;;;12.60;2.47;;;;;;;;;;4967006;28;20738;-72
2021/11/08 05:30:31;;;;;;;10.50;2.50;;;;;;;;;;4966936;28;20669;-73
2021/11/08 05:32:56;;;;;;;11.77;2.33;;;;;;;;;;4973744;28;20245;-74
2021/11/08 05:35:22;;;;;;;12.13;2.90;;;;;;;;;;4955849;28;20733;-73
2021/11/08 05:37:47;;;;;;;11.17;2.03;;;;;;;;;;4974558;28;20230;-72
2021/11/08 05:40:21;;;;;;;9.73;2.60;;;;;;;;;;4961414;28;20297;-74
2021/11/08 05:42:49;;;;;;;8.07;2.40;;;;;;;;;;4975612;28;20231;-74
2021/11/08 05:45:15;;;;;;;12.90;2.80;;;;;;;;;;4985270;28;20711;-74
2021/11/08 05:47:41;;;;;;;9.50;2.20;;;;;;;;;;4986896;28;20228;-74
2021/11/08 05:50:10;;;;;;;9.10;2.20;;;;;;;;;;4975615;28;20222;-74
2021/11/08 05:52:38;;;;;;;6.50;2.40;;;;;;;;;;4968208;28;20222;-74
2021/11/08 05:55:09;;;;;;;9.23;1.87;;;;;;;;;;4962327;28;20229;-74
2021/11/08 06:00:47;;;;;;;8.10;2.10;;;;;;;;;;4977890;28;20249;-74
2021/11/08 06:49:40;;;;;;;10.17;2.47;;;;;;;;;;4975883;28;20707;-74
2021/11/08 06:52:06;;;;;;;13.83;2.20;;;;;;;;;;4958403;28;20250;-73
2021/11/08 06:54:32;;;;;;;10.47;2.10;;;;;;;;;;4955165;28;20222;-72
2021/11/08 06:57:11;;;;;;;14.17;2.50;;;;;;;;;;4973615;28;20233;-72
2021/11/08 06:59:40;;;;;;;6.80;2.00;;;;;;;;;;4976885;28;20221;-74
2021/11/08 07:02:08;;;;;;;9.87;2.37;;;;;;;;;;4971534;28;20219;-74
2021/11/08 07:04:34;;;;;;;9.03;2.00;;;;;;;;;;4940052;28;20583;-73
2021/11/08 07:07:00;;;;;;;10.37;2.47;;;;;;;;;;4958037;28;20230;-73
2021/11/08 07:09:25;;;;;;;8.53;1.93;;;;;;;;;;4958528;28;20686;-73
2021/11/08 07:11:54;;;;;;;10.73;2.20;;;;;;;;;;4960871;28;20237;-72
2021/11/08 07:14:19;;;;;;;13.40;2.97;;;;;;;;;;4967232;28;20225;-74
2021/11/08 07:16:48;;;;;;;9.37;2.47;;;;;;;;;;4957872;28;20225;-71
2021/11/08 07:19:17;;;;;;;7.57;2.50;;;;;;;;;;4982354;28;20675;-72
2021/11/08 07:21:42;;;;;;;11.00;2.67;;;;;;;;;;4992245;28;20300;-73
2021/11/08 07:24:13;;;;;;;8.97;2.50;;;;;;;;;;4985879;28;20240;-73
2021/11/08 07:26:43;;;;;;;9.57;2.40;;;;;;;;;;4957224;28;20309;-72
2021/11/08 07:29:16;;;;;;;7.90;2.10;;;;;;;;;;4978688;28;20242;-72
2021/11/08 07:31:44;;;;;;;9.63;2.23;;;;;;;;;;4970873;28;20229;-74
2021/11/08 07:34:09;;;;;;;13.03;2.47;;;;;;;;;;4990842;28;20823;-72
2021/11/08 07:36:38;;;;;;;7.87;2.30;;;;;;;;;;4976376;28;20234;-73
2021/11/08 07:39:06;;;;;;;7.57;2.00;;;;;;;;;;4951030;28;20222;-73
2021/11/08 07:41:32;;;;;;;11.23;2.67;;;;;;;;;;4946525;28;20238;-74
2021/11/08 07:44:01;;;;;;;9.17;2.53;;;;;;;;;;4947226;28;20268;-73
2021/11/08 07:46:26;;;;;;;12.63;2.43;;;;;;;;;;4975233;28;20218;-73
2021/11/08 07:48:54;;;;;;;8.73;1.97;;;;;;;;;;4971168;28;20249;-72
2021/11/08 07:51:22;;;;;;;11.53;2.43;;;;;;;;;;4972298;28;20324;-72
2021/11/08 07:53:49;;;;;;;10.30;2.50;;;;;;;;;;4976980;28;20225;-73
2021/11/08 07:56:17;;;;;;;11.40;2.30;;;;;;;;;;4973478;28;20307;-73
2021/11/08 07:58:49;;;;;;;9.80;1.93;;;;;;;;;;4964802;28;20323;-71
2021/11/08 08:01:17;;;;;;;9.20;2.23;;;;;;;;;;4985297;28;20727;-71
2021/11/08 08:03:43;;;;;;;5.83;2.10;;;;;;;;;;4954940;28;20222;-72
2021/11/08 08:06:12;;;;;;;8.70;2.60;;;;;;;;;;4986537;28;20265;-72
2021/11/08 08:08:39;;;;;;;9.07;2.63;;;;;;;;;;4973131;28;20229;-72
2021/11/08 08:11:06;;;;;;;10.83;2.40;;;;;;;;;;4978893;28;20309;-72
2021/11/08 08:13:50;;;;;;;9.33;2.50;;;;;;;;;;4950109;28;20232;-71
2021/11/08 08:16:18;;;;;;;9.10;3.20;;;;;;;;;;4968823;28;20237;-71
2021/11/08 08:18:44;;;;;;;7.93;2.10;;;;;;;;;;4971164;28;20643;-72
2021/11/08 08:21:10;;;;;;;8.33;2.40;;;;;;;;;;4952523;28;20226;-72
2021/11/08 08:23:36;;;;;;;8.23;2.30;;;;;;;;;;4950952;28;20636;-71
2021/11/08 08:26:02;;;;;;;10.20;3.10;;;;;;;;;;4934779;28;20298;-73
2021/11/08 08:28:27;;;;;;;10.07;2.33;;;;;;;;;;4985321;28;20222;-73
2021/11/08 08:31:01;;;;;;;7.83;2.10;;;;;;;;;;4970938;28;20230;-72
2021/11/08 08:33:31;;;;;;;11.67;2.10;;;;;;;;;;4951776;28;20585;-71
2021/11/08 08:35:59;;;;;;;10.50;2.90;;;;;;;;;;4966298;28;20235;-72
2021/11/08 08:38:28;;;;;;;9.63;2.70;;;;;;;;;;4983811;28;20762;-71
2021/11/08 08:40:55;;;;;;;8.50;2.00;;;;;;;;;;4968016;28;20214;-72
2021/11/08 08:43:21;;;;;;;8.53;2.30;;;;;;;;;;4957820;28;20222;-71
2021/11/08 08:45:47;;;;;;;8.67;2.40;;;;;;;;;;4969535;28;20218;-72
2021/11/08 08:48:13;;;;;;;8.37;2.13;;;;;;;;;;4963827;28;20308;-72
2021/11/08 08:50:43;;;;;;;10.00;2.57;;;;;;;;;;4977838;28;20226;-72
2021/11/08 08:53:11;;;;;;;6.00;2.20;;;;;;;;;;4956609;28;20752;-72
2021/11/08 08:55:38;;;;;;;5.83;2.00;;;;;;;;;;4950446;28;20282;-72
2021/11/08 08:58:06;;;;;;;10.33;2.57;;;;;;;;;;4945916;28;20688;-73
2021/11/08 09:00:35;;;;;;;8.30;2.53;;;;;;;;;;4945213;28;20254;-72
2021/11/08 09:03:01;;;;;;;7.33;2.67;;;;;;;;;;4982773;28;20226;-73
2021/11/08 09:05:28;;;;;;;10.57;2.47;;;;;;;;;;4966232;28;20239;-73
2021/11/08 09:07:57;;;;;;;7.23;2.20;;;;;;;;;;4972601;28;20638;-72
2021/11/08 09:10:24;;;;;;;10.93;2.60;;;;;;;;;;4952200;28;20242;-72
2021/11/08 09:12:50;;;;;;;11.47;2.50;;;;;;;;;;4953492;28;20692;-72
2021/11/08 09:15:16;;;;;;;10.20;2.60;;;;;;;;;;4970187;28;20225;-73
2021/11/08 09:17:44;;;;;;;8.00;2.70;;;;;;;;;;4969933;28;20226;-72
2021/11/08 09:20:13;;;;;;;11.07;2.90;;;;;;;;;;4953533;28;20280;-73
2021/11/08 09:22:42;;;;;;;9.40;3.00;;;;;;;;;;4953566;28;20224;-74
2021/11/08 09:25:12;;;;;;;13.20;2.90;;;;;;;;;;4968979;28;20246;-72
2021/11/08 09:27:38;;;;;;;9.97;2.27;;;;;;;;;;4973691;28;20249;-72
2021/11/08 09:30:09;;;;;;;7.93;2.20;;;;;;;;;;4963091;28;20213;-73
2021/11/08 09:32:35;;;;;;;10.33;2.13;;;;;;;;;;4936490;28;20226;-72
2021/11/08 09:35:04;;;;;;;10.43;2.70;;;;;;;;;;4969005;28;20222;-72
2021/11/08 09:37:33;;;;;;;10.30;2.03;;;;;;;;;;4953191;28;20214;-72
2021/11/08 09:39:59;;;;;;;12.70;2.80;;;;;;;;;;4956443;28;20252;-73
2021/11/08 09:42:27;;;;;;;9.30;2.60;;;;;;;;;;4971488;28;20743;-72
2021/11/08 09:44:53;;;;;;;6.43;2.33;;;;;;;;;;4972433;28;20225;-73
2021/11/08 09:47:18;;;;;;;10.23;2.70;;;;;;;;;;4984073;28;20329;-72
2021/11/08 09:49:51;;;;;;;10.50;2.63;;;;;;;;;;4961033;28;20222;-75
2021/11/08 09:52:17;;;;;;;9.40;2.47;;;;;;;;;;4964066;28;20711;-74
2021/11/08 09:54:43;;;;;;;10.80;2.97;;;;;;;;;;4964366;28;20224;-73
2021/11/08 09:57:11;;;;;;;8.07;2.80;;;;;;;;;;4981354;28;20642;-72
2021/11/08 09:59:37;;;;;;;11.93;2.80;;;;;;;;;;4983531;28;20254;-73
2021/11/08 10:02:10;;;;;;;11.80;2.70;;;;;;;;;;4989967;28;20296;-71
2021/11/08 10:04:35;;;;;;;9.00;2.97;;;;;;;;;;4955187;28;20309;-74
2021/11/08 10:07:03;;;;;;;9.60;2.97;;;;;;;;;;4988159;28;20217;-72
2021/11/08 10:09:33;;;;;;;16.33;3.90;;;;;;;;;;4983784;28;20309;-71
2021/11/08 10:11:59;;;;;;;7.77;2.40;;;;;;;;;;4955696;28;20664;-72
2021/11/08 10:14:25;;;;;;;12.03;3.20;;;;;;;;;;4974845;28;20305;-76
2021/11/08 10:16:51;;;;;;;8.27;3.20;;;;;;;;;;4989598;28;20300;-73
2021/11/08 10:19:26;;;;;;;10.13;2.87;;;;;;;;;;4968230;28;20264;-73
2021/11/08 10:21:54;;;;;;;10.23;2.50;;;;;;;;;;4956577;28;20665;-73
2021/11/08 10:24:28;;;;;;;10.33;2.97;;;;;;;;;;4971821;28;20221;-73
2021/11/08 10:26:57;;;;;;;10.17;2.93;;;;;;;;;;4957334;28;20328;-73
2021/11/08 10:29:24;;;;;;;11.63;2.90;;;;;;;;;;4972815;28;20249;-73
2021/11/08 10:31:57;;;;;;;11.80;3.10;;;;;;;;;;4985056;28;20233;-73
2021/11/08 10:34:26;;;;;;;7.87;3.40;;;;;;;;;;4960068;28;20269;-73
2021/11/08 10:37:05;;;;;;;8.40;3.63;;;;;;;;;;4960767;28;20237;-73
2021/11/08 10:39:38;;;;;;;9.50;3.33;;;;;;;;;;4980659;28;20280;-74
2021/11/08 10:42:04;;;;;;;11.87;2.60;;;;;;;;;;4959333;28;20229;-73
2021/11/08 10:44:30;;;;;;;10.50;2.77;;;;;;;;;;4967220;28;20236;-72
2021/11/08 10:47:09;;;;;;;12.43;3.27;;;;;;;;;;4988247;28;20707;-72
2021/11/08 10:49:45;;;;;;;13.10;3.70;;;;;;;;;;4965243;28;20226;-72
2021/11/08 10:52:18;;;;;;;10.60;3.17;;;;;;;;;;4977058;28;20239;-72
2021/11/08 10:54:48;;;;;;;14.40;3.60;;;;;;;;;;4972238;28;20623;-72
2021/11/08 10:57:17;;;;;;;12.63;2.80;;;;;;;;;;4971058;28;20241;-72
2021/11/08 10:59:46;;;;;;;10.30;3.50;;;;;;;;;;4965319;28;20288;-71
2021/11/08 11:02:13;;;;;;;12.13;4.10;;;;;;;;;;4959609;28;20244;-72
2021/11/08 11:04:56;;;;;;;11.57;4.10;;;;;;;;;;4959847;28;20221;-73
2021/11/08 11:07:26;;;;;;;10.03;2.83;;;;;;;;;;4961344;28;20248;-71
2021/11/08 11:10:14;;;;;;;10.80;3.67;;;;;;;;;;4958053;28;20221;-72
2021/11/08 11:12:47;;;;;;;15.07;4.30;;;;;;;;;;4938248;28;20232;-72
2021/11/08 11:15:20;;;;;;;16.63;3.87;;;;;;;;;;4985299;28;20213;-72
2021/11/08 11:17:55;;;;;;;8.73;2.97;;;;;;;;;;4997475;28;20584;-72
2021/11/08 11:20:23;;;;;;;11.73;2.93;;;;;;;;;;4978845;28;20237;-72
2021/11/08 11:23:04;;;;;;;11.27;3.53;;;;;;;;;;4956188;28;20245;-73
2021/11/08 11:25:31;;;;;;;7.23;2.20;;;;;;;;;;4992190;28;20301;-72
2021/11/08 11:28:02;;;;;;;12.27;3.00;;;;;;;;;;4939875;28;20292;-73
2021/11/08 11:30:37;;;;;;;14.90;3.73;;;;;;;;;;4983280;28;20237;-72
2021/11/08 11:33:09;;;;;;;10.67;3.30;;;;;;;;;;4974824;28;20233;-72
2021/11/08 11:35:49;;;;;;;8.37;3.00;;;;;;;;;;4971566;28;20229;-72
2021/11/08 11:38:26;;;;;;;11.23;4.07;;;;;;;;;;4971322;28;20619;-73
2021/11/08 11:41:22;;;;;;;9.33;3.37;;;;;;;;;;4958171;28;20230;-72
2021/11/08 11:43:55;;;;;;;11.17;3.90;;;;;;;;;;4985567;28;20726;-71
2021/11/08 11:46:25;;;;;;;14.37;2.80;;;;;;;;;;4977247;28;20328;-73
2021/11/08 11:48:51;;;;;;;12.60;2.83;;;;;;;;;;5010564;28;20223;-72
2021/11/08 11:51:19;;;;;;;11.70;3.13;;;;;;;;;;4957396;28;20243;-73
2021/11/08 11:53:44;;;;;;;11.30;2.70;;;;;;;;;;4935762;29;20265;-73
2021/11/08 11:56:10;;;;;;;9.60;2.40;;;;;;;;;;4948941;28;20233;-72
2021/11/08 11:58:37;;;;;;;12.47;3.03;;;;;;;;;;4958846;28;20228;-72
2021/11/08 12:01:08;;;;;;;13.40;3.20;;;;;;;;;;4941527;28;20284;-72
2021/11/08 12:03:34;;;;;;;8.47;2.63;;;;;;;;;;4955795;28;20305;-73
2021/11/08 12:06:02;;;;;;;10.80;2.90;;;;;;;;;;4946852;28;20309;-74
2021/11/08 12:08:34;;;;;;;12.20;2.67;;;;;;;;;;4974338;28;20340;-73
2021/11/08 12:11:03;;;;;;;10.00;2.50;;;;;;;;;;4985906;28;20225;-72
2021/11/08 12:13:29;;;;;;;8.83;3.40;;;;;;;;;;4986722;28;20244;-72
2021/11/08 12:15:56;;;;;;;9.47;2.73;;;;;;;;;;4983075;28;20312;-72
2021/11/08 12:18:22;;;;;;;12.63;3.50;;;;;;;;;;4982266;28;20222;-73
2021/11/08 12:20:49;;;;;;;8.67;2.30;;;;;;;;;;4967434;28;20226;-72
2021/11/08 12:23:27;;;;;;;8.07;2.53;;;;;;;;;;4975163;28;20214;-72
2021/11/08 12:25:55;;;;;;;15.00;3.40;;;;;;;;;;4959051;28;20876;-73
2021/11/08 12:28:24;;;;;;;11.23;3.30;;;;;;;;;;4970547;28;20281;-72
2021/11/08 12:30:54;;;;;;;11.33;2.80;;;;;;;;;;4972276;28;20290;-73
2021/11/08 12:33:28;;;;;;;9.70;3.47;;;;;;;;;;4984396;28;20222;-73
2021/11/08 12:35:58;;;;;;;12.30;3.50;;;;;;;;;;4977258;28;20687;-72
2021/11/08 12:38:25;;;;;;;10.20;2.83;;;;;;;;;;4965223;28;20225;-73
2021/11/08 12:41:03;;;;;;;11.43;2.87;;;;;;;;;;4969231;28;20248;-73
2021/11/08 12:43:31;;;;;;;9.67;3.37;;;;;;;;;;4969704;28;20220;-73
2021/11/08 12:46:16;;;;;;;9.93;3.00;;;;;;;;;;4948011;28;20214;-73
2021/11/08 12:48:42;;;;;;;9.73;3.20;;;;;;;;;;4951283;28;20737;-74
2021/11/08 12:51:08;;;;;;;8.83;2.97;;;;;;;;;;4962486;28;20223;-73
2021/11/08 12:53:45;;;;;;;13.37;3.00;;;;;;;;;;4953881;28;20256;-73
2021/11/08 12:56:30;;;;;;;11.43;2.80;;;;;;;;;;4968463;28;20229;-74
2021/11/08 12:59:00;;;;;;;11.13;3.23;;;;;;;;;;4940418;28;20623;-72
2021/11/08 13:01:50;;;;;;;9.97;2.77;;;;;;;;;;4962439;28;20280;-73
2021/11/08 13:04:17;;;;;;;9.77;2.37;;;;;;;;;;4961826;28;20233;-73
2021/11/08 13:06:43;;;;;;;12.27;3.00;;;;;;;;;;4956117;28;20221;-74
2021/11/08 13:09:12;;;;;;;8.27;2.77;;;;;;;;;;4949054;28;20334;-75
2021/11/08 13:11:45;;;;;;;10.30;2.97;;;;;;;;;;4968181;28;20226;-73
2021/11/08 13:14:29;;;;;;;12.73;2.87;;;;;;;;;;4949923;28;20221;-73
2021/11/08 13:17:23;;;;;;;9.87;2.50;;;;;;;;;;4988265;28;20225;-72
2021/11/08 13:19:54;;;;;;;9.10;2.30;;;;;;;;;;4970470;28;20779;-72
2021/11/08 13:22:22;;;;;;;12.07;2.70;;;;;;;;;;4982999;28;20234;-73
2021/11/08 13:25:19;;;;;;;11.27;2.53;;;;;;;;;;4957638;28;20643;-72
2021/11/08 13:27:49;;;;;;;9.67;2.90;;;;;;;;;;4951247;28;20230;-73
2021/11/08 13:30:18;;;;;;;10.70;2.60;;;;;;;;;;4973143;28;20233;-73
2021/11/08 13:32:43;;;;;;;9.57;2.43;;;;;;;;;;4986015;28;20289;-73
2021/11/08 13:35:24;;;;;;;8.37;2.70;;;;;;;;;;4954418;28;20222;-72
2021/11/08 13:37:50;;;;;;;9.20;2.10;;;;;;;;;;4963893;28;20774;-71
2021/11/08 13:40:20;;;;;;;11.97;2.53;;;;;;;;;;4958452;28;20245;-73
2021/11/08 13:42:49;;;;;;;12.97;2.90;;;;;;;;;;4971789;28;20222;-73
2021/11/08 13:45:18;;;;;;;10.23;2.90;;;;;;;;;;4951678;28;20992;-74
2021/11/08 13:47:49;;;;;;;8.10;2.50;;;;;;;;;;4970563;28;20227;-73
2021/11/08 13:50:20;;;;;;;7.53;2.70;;;;;;;;;;4953698;28;20235;-73
2021/11/08 13:52:46;;;;;;;8.60;3.23;;;;;;;;;;4956388;28;20750;-72
2021/11/08 13:55:13;;;;;;;11.07;2.77;;;;;;;;;;4957301;28;20222;-73
2021/11/08 13:57:44;;;;;;;9.83;3.30;;;;;;;;;;4970331;28;20217;-72
2021/11/08 14:00:15;;;;;;;9.93;3.10;;;;;;;;;;4942989;28;20311;-74
2021/11/08 14:02:41;;;;;;;10.90;3.37;;;;;;;;;;4956376;28;20222;-72
2021/11/08 14:05:08;;;;;;;8.67;2.90;;;;;;;;;;4970884;28;20253;-73
2021/11/08 14:07:33;;;;;;;9.43;2.60;;;;;;;;;;4954970;28;20222;-72
2021/11/08 14:09:59;;;;;;;7.37;2.70;;;;;;;;;;4989977;28;20222;-73
2021/11/08 14:12:28;;;;;;;7.47;2.33;;;;;;;;;;4980016;28;20218;-73
2021/11/08 14:14:57;;;;;;;10.23;2.40;;;;;;;;;;4968259;28;20214;-73
2021/11/08 14:17:26;;;;;;;7.67;2.17;;;;;;;;;;4989101;28;20226;-73
2021/11/08 14:20:09;;;;;;;8.10;2.50;;;;;;;;;;4954199;28;20219;-73
2021/11/08 14:22:39;;;;;;;8.27;2.47;;;;;;;;;;4981332;28;20226;-73
2021/11/08 14:25:07;;;;;;;7.43;1.97;;;;;;;;;;4972428;28;20688;-73
2021/11/08 14:27:34;;;;;;;9.40;3.10;;;;;;;;;;4959476;28;20225;-75
2021/11/08 14:30:26;;;;;;;9.37;4.03;;;;;;;;;;4978578;28;20217;-75
2021/11/08 14:32:52;;;;;;;8.67;3.67;;;;;;;;;;4937211;28;20242;-74
2021/11/08 14:35:21;;;;;;;6.37;2.53;;;;;;;;;;4975296;28;20230;-73
2021/11/08 14:40:36;;;;;;;8.20;2.40;;;;;;;;;;4977902;28;20237;-74
2021/11/08 14:43:21;;;;;;;8.40;2.40;;;;;;;;;;4986265;28;20294;-73
2021/11/08 14:45:57;;;;;;;6.30;2.50;;;;;;;;;;4967176;28;20234;-73
2021/11/08 14:48:26;;;;;;;6.80;2.43;;;;;;;;;;4975109;28;20758;-73
2021/11/08 14:50:51;;;;;;;8.60;2.67;;;;;;;;;;4987769;28;20230;-73
2021/11/08 14:53:21;;;;;;;5.07;3.20;;;;;;;;;;4957824;28;20656;-73
2021/11/08 14:55:47;;;;;;;8.23;3.67;;;;;;;;;;4991813;28;20217;-72
2021/11/08 14:58:19;;;;;;;10.73;3.40;;;;;;;;;;4990116;28;20233;-72
2021/11/08 15:00:47;;;;;;;10.03;3.00;;;;;;;;;;4959522;28;20241;-73
2021/11/08 15:03:14;;;;;;;7.00;2.80;;;;;;;;;;4973189;28;20579;-73
2021/11/08 15:05:41;;;;;;;6.37;3.10;;;;;;;;;;5007671;28;20228;-72
2021/11/08 15:08:10;;;;;;;6.50;2.90;;;;;;;;;;4959163;28;20213;-73
2021/11/08 15:10:40;;;;;;;7.83;2.93;;;;;;;;;;4969137;28;20296;-73
2021/11/08 15:13:09;;;;;;;8.10;2.80;;;;;;;;;;4990755;28;20222;-73
2021/11/08 15:15:42;;;;;;;7.03;3.50;;;;;;;;;;4974724;28;20225;-73
2021/11/08 15:18:13;;;;;;;9.83;3.30;;;;;;;;;;4990935;28;20233;-72
2021/11/08 15:20:51;;;;;;;8.87;3.03;;;;;;;;;;4958479;28;20699;-73
2021/11/08 15:23:20;;;;;;;6.20;3.00;;;;;;;;;;4958483;28;20264;-73
2021/11/08 15:25:53;;;;;;;4.53;2.70;;;;;;;;;;4991101;28;20225;-73
2021/11/08 15:28:30;;;;;;;5.80;2.93;;;;;;;;;;4974410;28;20640;-72
2021/11/08 15:31:00;;;;;;;6.40;3.63;;;;;;;;;;4991132;28;20233;-72
2021/11/08 15:33:31;;;;;;;6.83;3.30;;;;;;;;;;4975057;28;20213;-73
2021/11/08 15:36:03;;;;;;;9.27;3.60;;;;;;;;;;4974608;28;20217;-72
2021/11/08 15:38:35;;;;;;;6.57;3.23;;;;;;;;;;4974962;28;20236;-73
2021/11/08 15:41:07;;;;;;;10.07;3.47;;;;;;;;;;4976233;28;20289;-72
2021/11/08 15:43:33;;;;;;;8.07;3.57;;;;;;;;;;4965700;28;21002;-73
2021/11/08 15:46:01;;;;;;;9.50;3.83;;;;;;;;;;4951807;28;20321;-72
2021/11/08 15:48:30;;;;;;;6.63;3.37;;;;;;;;;;4953723;28;20592;-73
2021/11/08 15:50:59;;;;;;;10.00;4.30;;;;;;;;;;4988422;28;20234;-73
2021/11/08 15:53:26;;;;;;;6.90;3.80;;;;;;;;;;4972199;28;20222;-73
2021/11/08 15:55:51;;;;;;;11.03;4.07;;;;;;;;;;4972137;28;20692;-72
2021/11/08 15:58:17;;;;;;;7.80;3.60;;;;;;;;;;4956083;28;20226;-72
2021/11/08 16:00:46;;;;;;;6.73;3.27;;;;;;;;;;4954262;28;20226;-72
2021/11/08 16:03:12;;;;;;;10.30;3.83;;;;;;;;;;4951587;28;20851;-72
2021/11/08 16:05:41;;;;;;;7.63;3.23;;;;;;;;;;4964074;28;20310;-72
2021/11/08 16:08:06;;;;;;;9.00;4.77;;;;;;;;;;4969911;28;20220;-72
2021/11/08 16:10:32;;;;;;;8.97;4.03;;;;;;;;;;4961810;28;20237;-73
2021/11/08 16:13:03;;;;;;;13.60;4.20;;;;;;;;;;4960805;28;20665;-73
2021/11/08 16:15:29;;;;;;;9.37;3.77;;;;;;;;;;4966649;28;20230;-73
2021/11/08 16:17:57;;;;;;;9.87;4.13;;;;;;;;;;4951610;28;20261;-73
2021/11/08 16:20:27;;;;;;;7.53;4.23;;;;;;;;;;4964019;28;20675;-73
2021/11/08 16:22:52;;;;;;;10.87;5.10;;;;;;;;;;4986605;28;20649;-73
2021/11/08 16:25:23;;;;;;;9.53;4.13;;;;;;;;;;4966447;28;20269;-73
2021/11/08 16:27:53;;;;;;;11.60;4.83;;;;;;;;;;4962572;28;20688;-72
2021/11/08 16:30:21;;;;;;;13.93;6.03;;;;;;;;;;4965317;28;20226;-72
2021/11/08 16:32:57;;;;;;;13.73;5.70;;;;;;;;;;4973917;28;20717;-73
2021/11/08 16:35:27;;;;;;;11.97;6.67;;;;;;;;;;4989716;28;20216;-73